createdAt,value
2022-08-17T00:03:15.164Z,18.20
2022-08-17T00:08:44.590Z,18.00
2022-08-17T00:14:16.667Z,18.10
2022-08-17T00:19:38.788Z,18.10
2022-08-17T00:25:00.937Z,18.00
2022-08-17T00:30:23.508Z,17.80
2022-08-17T00:35:47.325Z,17.80
2022-08-17T00:41:16.432Z,17.80
2022-08-17T00:46:42.174Z,17.80
2022-08-17T00:52:15.329Z,17.90
2022-08-17T00:57:44.764Z,17.90
2022-08-17T01:03:11.880Z,17.90
2022-08-17T01:08:35.653Z,17.70
2022-08-17T01:13:57.787Z,17.40
2022-08-17T01:19:26.996Z,17.30
2022-08-17T01:24:59.192Z,17.40
2022-08-17T01:30:59.004Z,17.50
2022-08-17T01:36:07.032Z,17.50
2022-08-17T01:41:29.359Z,17.60
2022-08-17T01:46:51.544Z,17.50
2022-08-17T01:52:15.404Z,17.60
2022-08-17T01:57:37.479Z,17.50
2022-08-17T02:02:59.629Z,17.60
2022-08-17T02:08:37.041Z,18.00
2022-08-17T02:14:03.279Z,18.10
2022-08-17T02:19:26.165Z,18.20
2022-08-17T02:25:00.214Z,18.20
2022-08-17T02:30:59.444Z,18.10
2022-08-17T02:36:09.111Z,17.80
2022-08-17T02:41:31.576Z,17.80
2022-08-17T02:46:53.701Z,17.80
2022-08-17T02:52:15.841Z,17.90
2022-08-17T02:57:57.961Z,17.90
2022-08-17T03:03:20.209Z,18.10
2022-08-17T03:08:43.003Z,18.10
2022-08-17T03:14:05.132Z,18.20
2022-08-17T03:19:27.239Z,18.30
2022-08-17T03:24:50.433Z,18.40
2022-08-17T03:30:14.000Z,18.40
2022-08-17T03:35:37.632Z,17.90
2022-08-17T03:41:00.059Z,17.60
2022-08-17T03:46:40.696Z,17.60
2022-08-17T03:52:22.201Z,17.70
2022-08-17T03:57:44.799Z,17.80
2022-08-17T04:03:06.925Z,17.50
2022-08-17T04:08:31.889Z,17.40
2022-08-17T04:13:54.113Z,17.60
2022-08-17T04:19:16.217Z,17.90
2022-08-17T04:24:38.368Z,18.40
2022-08-17T04:30:00.964Z,18.50
2022-08-17T04:35:29.085Z,18.50
2022-08-17T04:41:10.083Z,18.40
2022-08-17T04:46:35.125Z,18.50
2022-08-17T04:52:01.199Z,18.90
2022-08-17T04:57:26.623Z,19.70
2022-08-17T05:02:50.960Z,20.50
2022-08-17T05:08:13.333Z,21.20
2022-08-17T05:13:35.584Z,22.40
2022-08-17T05:18:59.168Z,22.30
2022-08-17T05:24:41.251Z,21.70
2022-08-17T05:30:04.049Z,21.50
2022-08-17T05:35:29.486Z,21.20
2022-08-17T05:40:54.812Z,21.30
2022-08-17T05:46:23.478Z,21.40
2022-08-17T05:51:48.356Z,21.40
2022-08-17T05:57:42.389Z,21.40
2022-08-17T06:03:29.068Z,21.30
2022-08-17T06:09:00.931Z,21.30
2022-08-17T06:14:52.025Z,21.40
2022-08-17T06:20:15.968Z,21.50
2022-08-17T06:25:52.165Z,21.70
2022-08-17T06:31:29.125Z,21.90
2022-08-17T06:37:03.775Z,21.90
2022-08-17T06:43:00.810Z,22.10
2022-08-17T06:48:47.000Z,22.30
2022-08-17T06:54:39.612Z,22.40
2022-08-17T07:00:06.647Z,22.80
2022-08-17T07:05:33.853Z,23.00
2022-08-17T07:11:00.531Z,23.20
2022-08-17T07:16:32.202Z,23.40
2022-08-17T07:22:02.177Z,23.60
2022-08-17T07:27:31.333Z,24.00
2022-08-17T07:32:57.808Z,24.20
2022-08-17T07:38:28.851Z,24.40
2022-08-17T07:43:52.837Z,24.50
2022-08-17T07:49:14.901Z,24.80
2022-08-17T07:54:38.935Z,25.20
2022-08-17T08:00:01.482Z,25.30
2022-08-17T08:05:49.508Z,25.60
2022-08-17T08:11:15.249Z,25.70
2022-08-17T08:16:37.514Z,26.00
2022-08-17T08:22:08.151Z,26.30
2022-08-17T08:27:36.236Z,26.10
2022-08-17T08:33:33.874Z,26.20
2022-08-17T08:39:06.139Z,27.10
2022-08-17T08:45:00.245Z,28.30
2022-08-17T08:50:48.014Z,27.50
2022-08-17T08:56:31.708Z,29.30
2022-08-17T09:02:12.691Z,29.90
2022-08-17T09:07:41.341Z,31.00
2022-08-17T09:13:15.748Z,33.50
2022-08-17T09:19:00.906Z,32.40
2022-08-17T09:24:43.764Z,30.80
2022-08-17T09:30:10.877Z,30.00
2022-08-17T09:35:39.416Z,30.20
2022-08-17T09:41:20.564Z,31.00
2022-08-17T09:47:05.383Z,29.10
2022-08-17T09:52:30.371Z,28.80
2022-08-17T09:58:10.259Z,28.90
2022-08-17T10:03:50.809Z,28.60
2022-08-17T10:09:39.439Z,28.70
2022-08-17T10:15:13.522Z,29.90
2022-08-17T10:21:43.234Z,30.60
2022-08-17T10:27:11.490Z,29.70
2022-08-17T10:32:57.651Z,29.70
2022-08-17T10:38:46.227Z,31.00
2022-08-17T10:44:40.358Z,31.50
2022-08-17T10:50:42.616Z,31.30
2022-08-17T10:56:14.034Z,32.10
2022-08-17T11:01:36.791Z,31.90
2022-08-17T11:07:02.091Z,30.20
2022-08-17T11:12:47.705Z,30.60
2022-08-17T11:18:25.049Z,30.50
2022-08-17T11:24:11.734Z,30.20
2022-08-17T11:30:01.285Z,30.30
2022-08-17T11:35:38.297Z,30.30
2022-08-17T11:41:27.601Z,29.00
2022-08-17T11:47:27.049Z,29.30
2022-08-17T11:52:50.245Z,30.10
2022-08-17T11:58:30.890Z,30.70
2022-08-17T12:03:57.825Z,31.40
2022-08-17T12:09:27.793Z,31.40
2022-08-17T12:15:11.347Z,32.00
2022-08-17T12:20:37.209Z,31.30
2022-08-17T12:26:19.442Z,31.30
2022-08-17T12:31:47.864Z,30.60
2022-08-17T12:37:18.594Z,29.40
2022-08-17T12:42:41.530Z,29.10
2022-08-17T12:48:21.370Z,29.50
2022-08-17T12:53:52.848Z,30.20
2022-08-17T12:59:29.713Z,30.40
2022-08-17T13:04:52.775Z,30.80
2022-08-17T13:10:33.815Z,30.60
2022-08-17T13:16:06.341Z,30.50
2022-08-17T13:21:30.721Z,30.60
2022-08-17T13:26:59.244Z,30.70
2022-08-17T13:32:38.663Z,31.30
2022-08-17T13:38:08.885Z,31.50
2022-08-17T13:43:57.333Z,31.50
2022-08-17T13:49:21.167Z,31.80
2022-08-17T13:54:49.997Z,31.90
2022-08-17T14:00:35.468Z,30.30
2022-08-17T14:05:57.611Z,29.90
2022-08-17T14:11:21.435Z,29.70
2022-08-17T14:16:44.004Z,29.80
2022-08-17T14:22:11.606Z,29.60
2022-08-17T14:27:41.609Z,29.70
2022-08-17T14:33:14.373Z,29.90
2022-08-17T14:38:37.273Z,29.90
2022-08-17T14:43:59.394Z,29.50
2022-08-17T14:49:21.541Z,29.30
2022-08-17T14:54:45.796Z,29.20
2022-08-17T15:00:09.251Z,29.20
2022-08-17T15:05:35.423Z,29.40
2022-08-17T15:10:57.757Z,29.40
2022-08-17T15:16:20.562Z,29.00
2022-08-17T15:21:42.829Z,29.20
2022-08-17T15:27:05.076Z,29.20
2022-08-17T15:32:33.108Z,29.00
2022-08-17T15:37:56.595Z,28.80
2022-08-17T15:43:27.600Z,28.90
2022-08-17T15:48:52.600Z,28.70
2022-08-17T15:54:18.854Z,28.70
2022-08-17T15:59:44.872Z,28.60
2022-08-17T16:05:12.808Z,28.70
2022-08-17T16:10:36.230Z,28.60
2022-08-17T16:15:58.733Z,28.50
2022-08-17T16:21:27.097Z,28.40
2022-08-17T16:26:49.220Z,28.20
2022-08-17T16:32:21.691Z,28.20
2022-08-17T16:37:57.189Z,28.10
2022-08-17T16:43:20.192Z,28.00
2022-08-17T16:48:44.469Z,27.10
2022-08-17T16:54:07.369Z,26.50
2022-08-17T16:59:31.063Z,26.20
2022-08-17T17:05:08.041Z,26.10
2022-08-17T17:10:44.891Z,25.80
2022-08-17T17:16:21.713Z,25.60
2022-08-17T17:21:48.161Z,25.40
2022-08-17T17:27:19.186Z,25.20
2022-08-17T17:32:58.755Z,25.20
2022-08-17T17:38:31.511Z,24.80
2022-08-17T17:44:03.921Z,24.60
2022-08-17T17:49:29.824Z,24.40
2022-08-17T17:55:22.004Z,24.10
2022-08-17T18:00:59.920Z,23.90
2022-08-17T18:06:45.468Z,23.70
2022-08-17T18:12:24.792Z,23.40
2022-08-17T18:18:26.276Z,23.50
2022-08-17T18:23:51.703Z,23.30
2022-08-17T18:29:34.323Z,22.90
2022-08-17T18:35:02.514Z,22.40
2022-08-17T18:40:30.115Z,22.40
2022-08-17T18:45:56.161Z,22.30
2022-08-17T18:51:40.752Z,22.10
2022-08-17T18:57:06.761Z,21.90
2022-08-17T19:02:45.018Z,22.00
2022-08-17T19:08:32.120Z,21.70
2022-08-17T19:14:03.124Z,21.60
2022-08-17T19:19:38.570Z,21.30
2022-08-17T19:25:16.174Z,21.20
2022-08-17T19:30:39.478Z,21.10
2022-08-17T19:36:09.848Z,21.10
2022-08-17T19:41:44.674Z,21.10
2022-08-17T19:47:13.061Z,20.90
2022-08-17T19:52:55.698Z,20.70
2022-08-17T19:58:45.210Z,20.60
2022-08-17T20:04:47.008Z,20.50
2022-08-17T20:10:17.173Z,20.50
2022-08-17T20:15:42.531Z,20.40
2022-08-17T20:21:26.253Z,20.30
2022-08-17T20:26:58.862Z,20.20
2022-08-17T20:32:24.148Z,20.00
2022-08-17T20:38:08.645Z,20.00
2022-08-17T20:43:33.754Z,20.10
2022-08-17T20:49:04.498Z,20.00
2022-08-17T20:54:53.644Z,19.80
2022-08-17T21:00:27.824Z,19.80
2022-08-17T21:06:15.406Z,19.80
2022-08-17T21:12:02.347Z,19.60
2022-08-17T21:17:35.979Z,19.60
2022-08-17T21:23:07.888Z,19.50
2022-08-17T21:28:34.241Z,19.50
2022-08-17T21:34:14.726Z,19.30
2022-08-17T21:39:40.918Z,19.20
2022-08-17T21:45:25.668Z,19.30
2022-08-17T21:50:57.768Z,19.20
2022-08-17T21:56:25.764Z,18.90
2022-08-17T22:01:53.103Z,19.00
2022-08-17T22:07:15.300Z,19.00
2022-08-17T22:12:37.483Z,18.90
2022-08-17T22:18:05.332Z,18.80
2022-08-17T22:23:59.355Z,18.70
2022-08-17T22:29:57.245Z,18.80
2022-08-17T22:35:28.940Z,18.80
2022-08-17T22:41:12.436Z,18.60
2022-08-17T22:46:48.661Z,18.70
2022-08-17T22:52:16.761Z,18.60
2022-08-17T22:58:04.452Z,18.70
2022-08-17T23:03:28.056Z,18.70
2022-08-17T23:08:54.902Z,18.70
2022-08-17T23:14:20.259Z,18.50
2022-08-17T23:19:42.483Z,18.40
2022-08-17T23:25:05.555Z,18.40
2022-08-17T23:30:30.307Z,18.50
2022-08-17T23:35:53.735Z,18.40
2022-08-17T23:41:21.423Z,18.30
2022-08-17T23:46:44.380Z,18.40
2022-08-17T23:52:10.025Z,18.30
2022-08-17T23:57:33.481Z,18.30
